sensor_id;sensor_type;location;lat;lon;timestamp;P1;durP1;ratioP1;P2;durP2;ratioP2
84381;SDS011;74572;51.834;5.820;2024-02-26T00:00:28;1.75;;;1.08;;
84381;SDS011;74572;51.834;5.820;2024-02-26T00:02:54;4.90;;;2.65;;
84381;SDS011;74572;51.834;5.820;2024-02-26T00:05:19;2.55;;;1.77;;
84381;SDS011;74572;51.834;5.820;2024-02-26T00:07:45;2.78;;;1.55;;
84381;SDS011;74572;51.834;5.820;2024-02-26T00:10:12;3.00;;;1.75;;
84381;SDS011;74572;51.834;5.820;2024-02-26T00:12:38;3.10;;;1.38;;
84381;SDS011;74572;51.834;5.820;2024-02-26T00:15:04;3.72;;;1.85;;
84381;SDS011;74572;51.834;5.820;2024-02-26T00:17:31;1.65;;;1.25;;
84381;SDS011;74572;51.834;5.820;2024-02-26T00:19:56;1.92;;;1.23;;
84381;SDS011;74572;51.834;5.820;2024-02-26T00:22:22;3.60;;;1.98;;
84381;SDS011;74572;51.834;5.820;2024-02-26T00:24:47;3.28;;;1.63;;
84381;SDS011;74572;51.834;5.820;2024-02-26T00:27:12;2.97;;;1.80;;
84381;SDS011;74572;51.834;5.820;2024-02-26T00:29:38;2.67;;;1.50;;
84381;SDS011;74572;51.834;5.820;2024-02-26T00:32:03;2.70;;;1.83;;
84381;SDS011;74572;51.834;5.820;2024-02-26T00:34:29;2.97;;;1.65;;
84381;SDS011;74572;51.834;5.820;2024-02-26T00:36:55;4.45;;;1.80;;
84381;SDS011;74572;51.834;5.820;2024-02-26T00:39:20;3.67;;;2.40;;
84381;SDS011;74572;51.834;5.820;2024-02-26T00:41:46;4.65;;;1.90;;
84381;SDS011;74572;51.834;5.820;2024-02-26T00:44:11;3.08;;;2.00;;
84381;SDS011;74572;51.834;5.820;2024-02-26T00:46:37;2.80;;;1.45;;
84381;SDS011;74572;51.834;5.820;2024-02-26T00:49:02;2.10;;;1.33;;
84381;SDS011;74572;51.834;5.820;2024-02-26T00:51:27;2.78;;;1.83;;
84381;SDS011;74572;51.834;5.820;2024-02-26T00:53:54;3.65;;;2.20;;
84381;SDS011;74572;51.834;5.820;2024-02-26T00:56:19;4.07;;;1.50;;
84381;SDS011;74572;51.834;5.820;2024-02-26T00:58:45;2.22;;;1.40;;
84381;SDS011;74572;51.834;5.820;2024-02-26T01:01:10;2.37;;;1.23;;
84381;SDS011;74572;51.834;5.820;2024-02-26T01:03:36;3.25;;;1.88;;
84381;SDS011;74572;51.834;5.820;2024-02-26T01:06:01;3.28;;;1.55;;
84381;SDS011;74572;51.834;5.820;2024-02-26T01:08:27;2.97;;;1.50;;
84381;SDS011;74572;51.834;5.820;2024-02-26T01:10:52;2.50;;;1.10;;
84381;SDS011;74572;51.834;5.820;2024-02-26T01:13:17;2.00;;;1.33;;
84381;SDS011;74572;51.834;5.820;2024-02-26T01:15:43;4.18;;;1.65;;
84381;SDS011;74572;51.834;5.820;2024-02-26T01:18:09;1.70;;;1.30;;
84381;SDS011;74572;51.834;5.820;2024-02-26T01:20:34;2.30;;;1.23;;
84381;SDS011;74572;51.834;5.820;2024-02-26T01:23:00;2.53;;;1.40;;
84381;SDS011;74572;51.834;5.820;2024-02-26T01:25:25;2.70;;;1.58;;
84381;SDS011;74572;51.834;5.820;2024-02-26T01:27:50;4.18;;;2.08;;
84381;SDS011;74572;51.834;5.820;2024-02-26T01:30:16;2.08;;;1.13;;
84381;SDS011;74572;51.834;5.820;2024-02-26T01:32:42;4.68;;;1.92;;
84381;SDS011;74572;51.834;5.820;2024-02-26T01:35:07;2.20;;;1.17;;
84381;SDS011;74572;51.834;5.820;2024-02-26T01:37:35;2.80;;;0.95;;
84381;SDS011;74572;51.834;5.820;2024-02-26T01:40:01;2.45;;;1.45;;
84381;SDS011;74572;51.834;5.820;2024-02-26T01:42:29;3.00;;;1.80;;
84381;SDS011;74572;51.834;5.820;2024-02-26T01:44:57;3.90;;;1.83;;
84381;SDS011;74572;51.834;5.820;2024-02-26T01:47:23;2.40;;;1.48;;
84381;SDS011;74572;51.834;5.820;2024-02-26T01:49:50;2.05;;;1.50;;
84381;SDS011;74572;51.834;5.820;2024-02-26T01:52:16;2.47;;;1.60;;
84381;SDS011;74572;51.834;5.820;2024-02-26T01:54:42;2.83;;;1.35;;
84381;SDS011;74572;51.834;5.820;2024-02-26T01:57:10;6.10;;;2.08;;
84381;SDS011;74572;51.834;5.820;2024-02-26T01:59:37;4.50;;;2.28;;
84381;SDS011;74572;51.834;5.820;2024-02-26T02:02:05;4.50;;;1.55;;
84381;SDS011;74572;51.834;5.820;2024-02-26T02:04:33;2.83;;;1.42;;
84381;SDS011;74572;51.834;5.820;2024-02-26T02:06:59;3.40;;;2.08;;
84381;SDS011;74572;51.834;5.820;2024-02-26T02:09:25;5.38;;;2.13;;
84381;SDS011;74572;51.834;5.820;2024-02-26T02:11:52;2.78;;;1.40;;
84381;SDS011;74572;51.834;5.820;2024-02-26T02:14:18;3.65;;;1.95;;
84381;SDS011;74572;51.834;5.820;2024-02-26T02:16:43;2.00;;;1.40;;
84381;SDS011;74572;51.834;5.820;2024-02-26T02:19:09;3.15;;;1.45;;
84381;SDS011;74572;51.834;5.820;2024-02-26T02:21:34;3.70;;;1.90;;
84381;SDS011;74572;51.834;5.820;2024-02-26T02:23:59;3.17;;;1.90;;
84381;SDS011;74572;51.834;5.820;2024-02-26T02:26:25;3.92;;;2.25;;
84381;SDS011;74572;51.834;5.820;2024-02-26T02:28:51;3.72;;;2.30;;
84381;SDS011;74572;51.834;5.820;2024-02-26T02:31:16;3.15;;;1.75;;
84381;SDS011;74572;51.834;5.820;2024-02-26T02:33:42;3.80;;;2.45;;
84381;SDS011;74572;51.834;5.820;2024-02-26T02:36:08;4.57;;;1.73;;
84381;SDS011;74572;51.834;5.820;2024-02-26T02:38:38;2.95;;;1.73;;
84381;SDS011;74572;51.834;5.820;2024-02-26T02:41:14;3.58;;;2.10;;
84381;SDS011;74572;51.834;5.820;2024-02-26T02:43:39;2.60;;;1.30;;
84381;SDS011;74572;51.834;5.820;2024-02-26T02:46:04;3.70;;;2.00;;
84381;SDS011;74572;51.834;5.820;2024-02-26T02:48:30;3.30;;;1.52;;
84381;SDS011;74572;51.834;5.820;2024-02-26T02:50:55;3.65;;;2.40;;
84381;SDS011;74572;51.834;5.820;2024-02-26T02:53:21;4.63;;;2.03;;
84381;SDS011;74572;51.834;5.820;2024-02-26T02:55:46;4.25;;;1.80;;
84381;SDS011;74572;51.834;5.820;2024-02-26T02:58:12;2.63;;;1.70;;
84381;SDS011;74572;51.834;5.820;2024-02-26T03:00:37;3.20;;;2.08;;
84381;SDS011;74572;51.834;5.820;2024-02-26T03:03:02;1.73;;;1.27;;
84381;SDS011;74572;51.834;5.820;2024-02-26T03:05:29;3.08;;;2.15;;
84381;SDS011;74572;51.834;5.820;2024-02-26T03:07:54;3.80;;;1.67;;
84381;SDS011;74572;51.834;5.820;2024-02-26T03:10:19;3.45;;;1.95;;
84381;SDS011;74572;51.834;5.820;2024-02-26T03:12:45;1.70;;;1.53;;
84381;SDS011;74572;51.834;5.820;2024-02-26T03:15:11;2.67;;;1.95;;
84381;SDS011;74572;51.834;5.820;2024-02-26T03:17:37;3.40;;;1.75;;
84381;SDS011;74572;51.834;5.820;2024-02-26T03:20:02;3.53;;;2.00;;
84381;SDS011;74572;51.834;5.820;2024-02-26T03:22:30;3.88;;;2.00;;
84381;SDS011;74572;51.834;5.820;2024-02-26T03:24:55;2.75;;;1.77;;
84381;SDS011;74572;51.834;5.820;2024-02-26T03:27:21;3.47;;;1.90;;
84381;SDS011;74572;51.834;5.820;2024-02-26T03:29:47;3.63;;;1.98;;
84381;SDS011;74572;51.834;5.820;2024-02-26T03:32:13;3.50;;;1.90;;
84381;SDS011;74572;51.834;5.820;2024-02-26T03:34:38;1.80;;;1.25;;
84381;SDS011;74572;51.834;5.820;2024-02-26T03:37:06;2.55;;;1.40;;
84381;SDS011;74572;51.834;5.820;2024-02-26T03:39:34;1.38;;;0.85;;
84381;SDS011;74572;51.834;5.820;2024-02-26T03:41:59;3.92;;;1.55;;
84381;SDS011;74572;51.834;5.820;2024-02-26T03:44:25;3.25;;;1.45;;
84381;SDS011;74572;51.834;5.820;2024-02-26T03:46:50;3.22;;;1.73;;
84381;SDS011;74572;51.834;5.820;2024-02-26T03:49:16;2.80;;;1.67;;
84381;SDS011;74572;51.834;5.820;2024-02-26T03:51:41;3.30;;;1.88;;
84381;SDS011;74572;51.834;5.820;2024-02-26T03:54:07;2.58;;;1.55;;
84381;SDS011;74572;51.834;5.820;2024-02-26T03:56:32;2.97;;;2.10;;
84381;SDS011;74572;51.834;5.820;2024-02-26T03:58:57;1.90;;;1.50;;
84381;SDS011;74572;51.834;5.820;2024-02-26T04:01:24;2.63;;;1.90;;
84381;SDS011;74572;51.834;5.820;2024-02-26T04:03:51;2.20;;;1.50;;
84381;SDS011;74572;51.834;5.820;2024-02-26T04:06:17;2.40;;;1.63;;
84381;SDS011;74572;51.834;5.820;2024-02-26T04:08:46;3.70;;;2.05;;
84381;SDS011;74572;51.834;5.820;2024-02-26T04:11:12;3.63;;;2.10;;
84381;SDS011;74572;51.834;5.820;2024-02-26T04:13:37;4.13;;;2.33;;
84381;SDS011;74572;51.834;5.820;2024-02-26T04:16:04;3.92;;;2.08;;
84381;SDS011;74572;51.834;5.820;2024-02-26T04:18:31;2.88;;;2.08;;
84381;SDS011;74572;51.834;5.820;2024-02-26T04:20:56;3.85;;;2.00;;
84381;SDS011;74572;51.834;5.820;2024-02-26T04:23:22;4.82;;;2.42;;
84381;SDS011;74572;51.834;5.820;2024-02-26T04:25:48;3.13;;;1.45;;
84381;SDS011;74572;51.834;5.820;2024-02-26T04:28:13;4.95;;;2.28;;
84381;SDS011;74572;51.834;5.820;2024-02-26T04:30:39;3.60;;;1.90;;
84381;SDS011;74572;51.834;5.820;2024-02-26T04:33:04;2.65;;;1.27;;
84381;SDS011;74572;51.834;5.820;2024-02-26T04:35:30;4.40;;;2.10;;
84381;SDS011;74572;51.834;5.820;2024-02-26T04:37:56;4.57;;;3.00;;
84381;SDS011;74572;51.834;5.820;2024-02-26T04:40:21;3.75;;;2.47;;
84381;SDS011;74572;51.834;5.820;2024-02-26T04:42:46;3.80;;;2.42;;
84381;SDS011;74572;51.834;5.820;2024-02-26T04:45:12;4.75;;;2.80;;
84381;SDS011;74572;51.834;5.820;2024-02-26T04:47:38;4.75;;;2.33;;
84381;SDS011;74572;51.834;5.820;2024-02-26T04:50:03;3.33;;;2.63;;
84381;SDS011;74572;51.834;5.820;2024-02-26T04:52:29;5.38;;;3.22;;
84381;SDS011;74572;51.834;5.820;2024-02-26T04:54:54;5.10;;;2.63;;
84381;SDS011;74572;51.834;5.820;2024-02-26T04:57:21;8.35;;;1.92;;
84381;SDS011;74572;51.834;5.820;2024-02-26T04:59:47;6.35;;;3.00;;
84381;SDS011;74572;51.834;5.820;2024-02-26T05:02:12;3.10;;;2.67;;
84381;SDS011;74572;51.834;5.820;2024-02-26T05:04:38;5.65;;;3.17;;
84381;SDS011;74572;51.834;5.820;2024-02-26T05:07:04;4.72;;;2.70;;
84381;SDS011;74572;51.834;5.820;2024-02-26T05:09:29;5.55;;;3.25;;
84381;SDS011;74572;51.834;5.820;2024-02-26T05:11:55;4.68;;;2.88;;
84381;SDS011;74572;51.834;5.820;2024-02-26T05:14:20;5.63;;;2.80;;
84381;SDS011;74572;51.834;5.820;2024-02-26T05:16:46;4.85;;;3.05;;
84381;SDS011;74572;51.834;5.820;2024-02-26T05:19:12;2.33;;;1.52;;
84381;SDS011;74572;51.834;5.820;2024-02-26T05:21:38;6.68;;;3.92;;
84381;SDS011;74572;51.834;5.820;2024-02-26T05:24:03;5.50;;;2.38;;
84381;SDS011;74572;51.834;5.820;2024-02-26T05:26:29;5.55;;;2.33;;
84381;SDS011;74572;51.834;5.820;2024-02-26T05:28:54;2.67;;;1.23;;
84381;SDS011;74572;51.834;5.820;2024-02-26T05:31:24;6.35;;;3.67;;
84381;SDS011;74572;51.834;5.820;2024-02-26T05:33:50;5.25;;;3.25;;
84381;SDS011;74572;51.834;5.820;2024-02-26T05:36:20;5.07;;;3.03;;
84381;SDS011;74572;51.834;5.820;2024-02-26T05:38:47;3.67;;;2.78;;
84381;SDS011;74572;51.834;5.820;2024-02-26T05:41:16;4.80;;;2.70;;
84381;SDS011;74572;51.834;5.820;2024-02-26T05:43:45;3.40;;;1.92;;
84381;SDS011;74572;51.834;5.820;2024-02-26T05:46:10;3.20;;;1.70;;
84381;SDS011;74572;51.834;5.820;2024-02-26T05:48:36;2.78;;;1.70;;
84381;SDS011;74572;51.834;5.820;2024-02-26T05:51:01;4.68;;;2.78;;
84381;SDS011;74572;51.834;5.820;2024-02-26T05:53:27;4.88;;;3.63;;
84381;SDS011;74572;51.834;5.820;2024-02-26T05:55:52;5.87;;;3.00;;
84381;SDS011;74572;51.834;5.820;2024-02-26T05:58:17;4.95;;;2.53;;
84381;SDS011;74572;51.834;5.820;2024-02-26T06:00:43;6.07;;;3.13;;
84381;SDS011;74572;51.834;5.820;2024-02-26T06:03:08;4.15;;;2.17;;
84381;SDS011;74572;51.834;5.820;2024-02-26T06:05:34;4.32;;;2.95;;
84381;SDS011;74572;51.834;5.820;2024-02-26T06:07:59;5.43;;;2.97;;
84381;SDS011;74572;51.834;5.820;2024-02-26T06:10:24;2.72;;;1.95;;
84381;SDS011;74572;51.834;5.820;2024-02-26T06:12:50;3.20;;;2.03;;
84381;SDS011;74572;51.834;5.820;2024-02-26T06:15:15;2.97;;;1.90;;
84381;SDS011;74572;51.834;5.820;2024-02-26T06:17:41;4.75;;;2.35;;
84381;SDS011;74572;51.834;5.820;2024-02-26T06:20:07;5.20;;;3.05;;
84381;SDS011;74572;51.834;5.820;2024-02-26T06:22:36;5.53;;;3.38;;
84381;SDS011;74572;51.834;5.820;2024-02-26T06:25:02;2.75;;;1.70;;
84381;SDS011;74572;51.834;5.820;2024-02-26T06:27:28;4.22;;;2.40;;
84381;SDS011;74572;51.834;5.820;2024-02-26T06:29:53;3.97;;;2.47;;
84381;SDS011;74572;51.834;5.820;2024-02-26T06:32:18;3.70;;;2.40;;
84381;SDS011;74572;51.834;5.820;2024-02-26T06:34:44;4.43;;;2.03;;
84381;SDS011;74572;51.834;5.820;2024-02-26T06:37:09;3.30;;;1.92;;
84381;SDS011;74572;51.834;5.820;2024-02-26T06:39:35;4.60;;;2.20;;
84381;SDS011;74572;51.834;5.820;2024-02-26T06:42:00;3.60;;;2.25;;
84381;SDS011;74572;51.834;5.820;2024-02-26T06:44:27;5.05;;;2.90;;
84381;SDS011;74572;51.834;5.820;2024-02-26T06:46:59;3.33;;;1.88;;
84381;SDS011;74572;51.834;5.820;2024-02-26T06:49:25;4.05;;;2.47;;
84381;SDS011;74572;51.834;5.820;2024-02-26T06:51:51;4.45;;;2.42;;
84381;SDS011;74572;51.834;5.820;2024-02-26T06:54:17;3.33;;;2.17;;
84381;SDS011;74572;51.834;5.820;2024-02-26T06:56:42;4.55;;;2.70;;
84381;SDS011;74572;51.834;5.820;2024-02-26T06:59:07;2.83;;;1.80;;
84381;SDS011;74572;51.834;5.820;2024-02-26T07:01:33;3.58;;;2.17;;
84381;SDS011;74572;51.834;5.820;2024-02-26T07:03:59;5.18;;;3.00;;
84381;SDS011;74572;51.834;5.820;2024-02-26T07:06:24;3.15;;;2.28;;
84381;SDS011;74572;51.834;5.820;2024-02-26T07:08:50;4.63;;;2.40;;
84381;SDS011;74572;51.834;5.820;2024-02-26T07:11:15;2.92;;;1.65;;
84381;SDS011;74572;51.834;5.820;2024-02-26T07:13:41;2.22;;;1.50;;
84381;SDS011;74572;51.834;5.820;2024-02-26T07:16:08;5.30;;;2.42;;
84381;SDS011;74572;51.834;5.820;2024-02-26T07:18:34;5.38;;;3.30;;
84381;SDS011;74572;51.834;5.820;2024-02-26T07:21:03;3.37;;;2.13;;
84381;SDS011;74572;51.834;5.820;2024-02-26T07:23:31;4.45;;;2.72;;
84381;SDS011;74572;51.834;5.820;2024-02-26T07:25:57;5.25;;;2.90;;
84381;SDS011;74572;51.834;5.820;2024-02-26T07:28:23;3.72;;;2.03;;
84381;SDS011;74572;51.834;5.820;2024-02-26T07:30:49;3.05;;;1.83;;
84381;SDS011;74572;51.834;5.820;2024-02-26T07:33:15;2.47;;;1.80;;
84381;SDS011;74572;51.834;5.820;2024-02-26T07:35:40;4.45;;;2.65;;
84381;SDS011;74572;51.834;5.820;2024-02-26T07:38:06;2.05;;;1.63;;
84381;SDS011;74572;51.834;5.820;2024-02-26T07:40:31;3.10;;;1.67;;
84381;SDS011;74572;51.834;5.820;2024-02-26T07:42:57;5.25;;;2.60;;
84381;SDS011;74572;51.834;5.820;2024-02-26T07:45:22;6.63;;;4.25;;
84381;SDS011;74572;51.834;5.820;2024-02-26T07:47:48;3.90;;;2.67;;
84381;SDS011;74572;51.834;5.820;2024-02-26T07:50:13;3.22;;;2.05;;
84381;SDS011;74572;51.834;5.820;2024-02-26T07:52:39;3.08;;;2.00;;
84381;SDS011;74572;51.834;5.820;2024-02-26T07:55:05;5.60;;;3.50;;
84381;SDS011;74572;51.834;5.820;2024-02-26T07:57:34;5.10;;;2.80;;
84381;SDS011;74572;51.834;5.820;2024-02-26T08:00:00;7.28;;;3.17;;
84381;SDS011;74572;51.834;5.820;2024-02-26T08:02:26;4.07;;;3.17;;
84381;SDS011;74572;51.834;5.820;2024-02-26T08:04:52;4.43;;;2.35;;
84381;SDS011;74572;51.834;5.820;2024-02-26T08:07:18;5.25;;;2.67;;
84381;SDS011;74572;51.834;5.820;2024-02-26T08:09:44;3.08;;;2.45;;
84381;SDS011;74572;51.834;5.820;2024-02-26T08:12:11;4.60;;;1.90;;
84381;SDS011;74572;51.834;5.820;2024-02-26T08:14:36;9.75;;;2.95;;
84381;SDS011;74572;51.834;5.820;2024-02-26T08:17:02;5.80;;;3.88;;
84381;SDS011;74572;51.834;5.820;2024-02-26T08:19:27;6.97;;;3.58;;
84381;SDS011;74572;51.834;5.820;2024-02-26T08:21:53;5.10;;;3.05;;
84381;SDS011;74572;51.834;5.820;2024-02-26T08:24:18;7.30;;;3.33;;
84381;SDS011;74572;51.834;5.820;2024-02-26T08:26:44;8.70;;;4.28;;
84381;SDS011;74572;51.834;5.820;2024-02-26T08:29:10;4.45;;;2.55;;
84381;SDS011;74572;51.834;5.820;2024-02-26T08:31:35;8.52;;;4.32;;
84381;SDS011;74572;51.834;5.820;2024-02-26T08:34:02;6.65;;;4.05;;
84381;SDS011;74572;51.834;5.820;2024-02-26T08:36:29;5.18;;;2.65;;
84381;SDS011;74572;51.834;5.820;2024-02-26T08:38:55;7.38;;;4.03;;
84381;SDS011;74572;51.834;5.820;2024-02-26T08:41:20;6.95;;;2.85;;
84381;SDS011;74572;51.834;5.820;2024-02-26T08:43:46;8.18;;;3.80;;
84381;SDS011;74572;51.834;5.820;2024-02-26T08:46:12;6.45;;;4.03;;
84381;SDS011;74572;51.834;5.820;2024-02-26T08:48:38;7.03;;;3.83;;
84381;SDS011;74572;51.834;5.820;2024-02-26T08:51:05;8.82;;;4.38;;
84381;SDS011;74572;51.834;5.820;2024-02-26T08:53:35;13.07;;;6.70;;
84381;SDS011;74572;51.834;5.820;2024-02-26T08:56:01;7.97;;;3.92;;
84381;SDS011;74572;51.834;5.820;2024-02-26T08:58:27;5.72;;;3.40;;
84381;SDS011;74572;51.834;5.820;2024-02-26T09:00:53;8.18;;;4.90;;
84381;SDS011;74572;51.834;5.820;2024-02-26T09:03:19;11.45;;;5.28;;
84381;SDS011;74572;51.834;5.820;2024-02-26T09:05:48;8.55;;;5.03;;
84381;SDS011;74572;51.834;5.820;2024-02-26T09:08:16;11.55;;;6.50;;
84381;SDS011;74572;51.834;5.820;2024-02-26T09:10:42;9.80;;;4.60;;
84381;SDS011;74572;51.834;5.820;2024-02-26T09:13:07;6.95;;;3.10;;
84381;SDS011;74572;51.834;5.820;2024-02-26T09:15:33;7.57;;;4.63;;
84381;SDS011;74572;51.834;5.820;2024-02-26T09:17:58;7.60;;;4.78;;
84381;SDS011;74572;51.834;5.820;2024-02-26T09:20:24;6.13;;;3.70;;
84381;SDS011;74572;51.834;5.820;2024-02-26T09:22:50;8.15;;;4.43;;
84381;SDS011;74572;51.834;5.820;2024-02-26T09:25:16;6.43;;;3.50;;
84381;SDS011;74572;51.834;5.820;2024-02-26T09:27:42;8.00;;;4.40;;
84381;SDS011;74572;51.834;5.820;2024-02-26T09:30:09;9.85;;;4.35;;
84381;SDS011;74572;51.834;5.820;2024-02-26T09:32:37;8.93;;;3.42;;
84381;SDS011;74572;51.834;5.820;2024-02-26T09:35:03;10.85;;;5.53;;
84381;SDS011;74572;51.834;5.820;2024-02-26T09:37:29;10.25;;;4.93;;
84381;SDS011;74572;51.834;5.820;2024-02-26T09:39:55;9.18;;;4.57;;
84381;SDS011;74572;51.834;5.820;2024-02-26T09:42:20;7.03;;;3.40;;
84381;SDS011;74572;51.834;5.820;2024-02-26T09:44:49;7.15;;;3.33;;
84381;SDS011;74572;51.834;5.820;2024-02-26T09:47:18;7.25;;;4.22;;
84381;SDS011;74572;51.834;5.820;2024-02-26T09:49:46;8.90;;;3.78;;
84381;SDS011;74572;51.834;5.820;2024-02-26T09:52:13;8.88;;;4.38;;
84381;SDS011;74572;51.834;5.820;2024-02-26T09:54:40;8.60;;;3.85;;
84381;SDS011;74572;51.834;5.820;2024-02-26T09:57:08;7.13;;;3.78;;
84381;SDS011;74572;51.834;5.820;2024-02-26T09:59:41;6.78;;;3.88;;
84381;SDS011;74572;51.834;5.820;2024-02-26T10:02:13;9.70;;;4.80;;
84381;SDS011;74572;51.834;5.820;2024-02-26T10:04:40;12.15;;;5.47;;
84381;SDS011;74572;51.834;5.820;2024-02-26T10:07:09;10.10;;;4.65;;
84381;SDS011;74572;51.834;5.820;2024-02-26T10:09:38;11.95;;;5.95;;
84381;SDS011;74572;51.834;5.820;2024-02-26T10:12:04;7.85;;;3.92;;
84381;SDS011;74572;51.834;5.820;2024-02-26T10:14:32;9.60;;;4.28;;
84381;SDS011;74572;51.834;5.820;2024-02-26T10:16:57;10.90;;;5.03;;
84381;SDS011;74572;51.834;5.820;2024-02-26T10:19:29;12.60;;;5.18;;
84381;SDS011;74572;51.834;5.820;2024-02-26T10:21:59;10.07;;;4.47;;
84381;SDS011;74572;51.834;5.820;2024-02-26T10:24:26;10.77;;;5.07;;
84381;SDS011;74572;51.834;5.820;2024-02-26T10:26:54;8.85;;;4.10;;
84381;SDS011;74572;51.834;5.820;2024-02-26T10:29:22;13.95;;;6.15;;
84381;SDS011;74572;51.834;5.820;2024-02-26T10:31:50;14.48;;;6.18;;
84381;SDS011;74572;51.834;5.820;2024-02-26T10:34:16;7.85;;;4.32;;
84381;SDS011;74572;51.834;5.820;2024-02-26T10:36:42;5.88;;;3.38;;
84381;SDS011;74572;51.834;5.820;2024-02-26T10:39:09;8.10;;;4.38;;
84381;SDS011;74572;51.834;5.820;2024-02-26T10:41:36;9.38;;;4.30;;
84381;SDS011;74572;51.834;5.820;2024-02-26T10:44:03;8.75;;;4.43;;
84381;SDS011;74572;51.834;5.820;2024-02-26T10:46:28;12.80;;;6.18;;
84381;SDS011;74572;51.834;5.820;2024-02-26T10:48:54;8.45;;;4.38;;
84381;SDS011;74572;51.834;5.820;2024-02-26T10:51:22;10.52;;;4.53;;
84381;SDS011;74572;51.834;5.820;2024-02-26T10:53:56;5.65;;;3.05;;
84381;SDS011;74572;51.834;5.820;2024-02-26T10:56:30;11.70;;;5.40;;
84381;SDS011;74572;51.834;5.820;2024-02-26T10:58:59;8.90;;;4.60;;
84381;SDS011;74572;51.834;5.820;2024-02-26T11:01:25;8.57;;;4.15;;
84381;SDS011;74572;51.834;5.820;2024-02-26T11:03:54;11.80;;;4.95;;
84381;SDS011;74572;51.834;5.820;2024-02-26T11:06:21;11.07;;;4.65;;
84381;SDS011;74572;51.834;5.820;2024-02-26T11:08:50;10.45;;;4.10;;
84381;SDS011;74572;51.834;5.820;2024-02-26T11:11:19;11.45;;;5.35;;
84381;SDS011;74572;51.834;5.820;2024-02-26T11:13:46;12.50;;;4.88;;
84381;SDS011;74572;51.834;5.820;2024-02-26T11:16:19;11.95;;;5.45;;
84381;SDS011;74572;51.834;5.820;2024-02-26T11:18:47;11.70;;;5.45;;
84381;SDS011;74572;51.834;5.820;2024-02-26T11:21:16;10.35;;;5.63;;
84381;SDS011;74572;51.834;5.820;2024-02-26T11:23:52;9.52;;;5.30;;
84381;SDS011;74572;51.834;5.820;2024-02-26T11:26:18;7.82;;;4.43;;
84381;SDS011;74572;51.834;5.820;2024-02-26T11:28:46;9.40;;;4.57;;
84381;SDS011;74572;51.834;5.820;2024-02-26T11:31:13;5.93;;;3.03;;
84381;SDS011;74572;51.834;5.820;2024-02-26T11:33:39;8.02;;;4.35;;
84381;SDS011;74572;51.834;5.820;2024-02-26T11:36:11;9.85;;;4.65;;
84381;SDS011;74572;51.834;5.820;2024-02-26T11:38:39;12.45;;;6.40;;
84381;SDS011;74572;51.834;5.820;2024-02-26T11:41:05;12.52;;;6.15;;
84381;SDS011;74572;51.834;5.820;2024-02-26T11:46:33;12.32;;;6.07;;
84381;SDS011;74572;51.834;5.820;2024-02-26T11:51:51;10.35;;;5.65;;
84381;SDS011;74572;51.834;5.820;2024-02-26T11:57:27;11.18;;;5.30;;
84381;SDS011;74572;51.834;5.820;2024-02-26T12:02:51;11.35;;;4.60;;
84381;SDS011;74572;51.834;5.820;2024-02-26T12:05:26;12.30;;;4.78;;
84381;SDS011;74572;51.834;5.820;2024-02-26T12:07:56;8.70;;;4.30;;
84381;SDS011;74572;51.834;5.820;2024-02-26T12:10:26;8.90;;;4.28;;
84381;SDS011;74572;51.834;5.820;2024-02-26T12:12:59;6.28;;;2.90;;
84381;SDS011;74572;51.834;5.820;2024-02-26T12:15:31;10.70;;;5.47;;
84381;SDS011;74572;51.834;5.820;2024-02-26T12:18:01;8.48;;;4.25;;
84381;SDS011;74572;51.834;5.820;2024-02-26T12:20:27;7.57;;;4.05;;
84381;SDS011;74572;51.834;5.820;2024-02-26T12:22:53;9.75;;;5.05;;
84381;SDS011;74572;51.834;5.820;2024-02-26T12:25:24;10.50;;;5.50;;
84381;SDS011;74572;51.834;5.820;2024-02-26T12:27:53;5.78;;;2.90;;
84381;SDS011;74572;51.834;5.820;2024-02-26T12:30:19;7.90;;;3.78;;
84381;SDS011;74572;51.834;5.820;2024-02-26T12:32:48;12.32;;;5.15;;
84381;SDS011;74572;51.834;5.820;2024-02-26T12:35:15;9.88;;;4.65;;
84381;SDS011;74572;51.834;5.820;2024-02-26T12:37:43;7.88;;;4.15;;
84381;SDS011;74572;51.834;5.820;2024-02-26T12:40:09;9.52;;;4.57;;
84381;SDS011;74572;51.834;5.820;2024-02-26T12:42:35;8.45;;;3.97;;
84381;SDS011;74572;51.834;5.820;2024-02-26T12:45:09;9.60;;;4.55;;
84381;SDS011;74572;51.834;5.820;2024-02-26T12:47:39;3.65;;;2.17;;
84381;SDS011;74572;51.834;5.820;2024-02-26T12:50:05;9.93;;;3.65;;
84381;SDS011;74572;51.834;5.820;2024-02-26T12:52:34;7.82;;;3.72;;
84381;SDS011;74572;51.834;5.820;2024-02-26T12:55:04;6.80;;;3.53;;
84381;SDS011;74572;51.834;5.820;2024-02-26T12:57:33;7.45;;;4.35;;
84381;SDS011;74572;51.834;5.820;2024-02-26T13:00:00;8.43;;;4.13;;
84381;SDS011;74572;51.834;5.820;2024-02-26T13:02:27;8.98;;;4.13;;
84381;SDS011;74572;51.834;5.820;2024-02-26T13:04:53;6.75;;;3.47;;
84381;SDS011;74572;51.834;5.820;2024-02-26T13:07:20;6.20;;;3.08;;
84381;SDS011;74572;51.834;5.820;2024-02-26T13:09:46;8.50;;;4.07;;
84381;SDS011;74572;51.834;5.820;2024-02-26T13:12:11;4.18;;;2.13;;
84381;SDS011;74572;51.834;5.820;2024-02-26T13:14:38;6.68;;;3.17;;
84381;SDS011;74572;51.834;5.820;2024-02-26T13:17:03;6.90;;;3.95;;
84381;SDS011;74572;51.834;5.820;2024-02-26T13:19:29;6.22;;;2.90;;
84381;SDS011;74572;51.834;5.820;2024-02-26T13:21:54;5.55;;;2.97;;
84381;SDS011;74572;51.834;5.820;2024-02-26T13:24:20;5.55;;;2.97;;
84381;SDS011;74572;51.834;5.820;2024-02-26T13:26:47;6.65;;;3.28;;
84381;SDS011;74572;51.834;5.820;2024-02-26T13:29:18;6.82;;;2.80;;
84381;SDS011;74572;51.834;5.820;2024-02-26T13:31:44;3.63;;;2.30;;
84381;SDS011;74572;51.834;5.820;2024-02-26T13:34:09;6.00;;;3.47;;
84381;SDS011;74572;51.834;5.820;2024-02-26T13:36:35;9.88;;;3.10;;
84381;SDS011;74572;51.834;5.820;2024-02-26T13:39:00;6.75;;;3.47;;
84381;SDS011;74572;51.834;5.820;2024-02-26T13:41:26;4.55;;;2.45;;
84381;SDS011;74572;51.834;5.820;2024-02-26T13:43:52;4.38;;;1.95;;
84381;SDS011;74572;51.834;5.820;2024-02-26T13:46:17;7.22;;;3.40;;
84381;SDS011;74572;51.834;5.820;2024-02-26T13:48:43;6.05;;;2.83;;
84381;SDS011;74572;51.834;5.820;2024-02-26T13:51:09;5.75;;;3.28;;
84381;SDS011;74572;51.834;5.820;2024-02-26T13:53:34;7.47;;;3.35;;
84381;SDS011;74572;51.834;5.820;2024-02-26T13:56:00;7.53;;;4.28;;
84381;SDS011;74572;51.834;5.820;2024-02-26T13:58:26;5.05;;;2.35;;
84381;SDS011;74572;51.834;5.820;2024-02-26T14:00:55;4.30;;;2.80;;
84381;SDS011;74572;51.834;5.820;2024-02-26T14:03:21;5.45;;;3.03;;
84381;SDS011;74572;51.834;5.820;2024-02-26T14:05:47;7.30;;;3.97;;
84381;SDS011;74572;51.834;5.820;2024-02-26T14:08:12;6.93;;;3.28;;
84381;SDS011;74572;51.834;5.820;2024-02-26T14:10:38;5.78;;;2.83;;
84381;SDS011;74572;51.834;5.820;2024-02-26T14:13:04;6.65;;;3.78;;
84381;SDS011;74572;51.834;5.820;2024-02-26T14:15:29;5.53;;;2.80;;
84381;SDS011;74572;51.834;5.820;2024-02-26T14:17:55;4.93;;;3.13;;
84381;SDS011;74572;51.834;5.820;2024-02-26T14:20:21;4.10;;;2.53;;
84381;SDS011;74572;51.834;5.820;2024-02-26T14:22:48;6.25;;;3.22;;
84381;SDS011;74572;51.834;5.820;2024-02-26T14:25:20;7.45;;;3.60;;
84381;SDS011;74572;51.834;5.820;2024-02-26T14:27:46;4.95;;;2.78;;
84381;SDS011;74572;51.834;5.820;2024-02-26T14:30:12;4.43;;;2.67;;
84381;SDS011;74572;51.834;5.820;2024-02-26T14:32:40;5.68;;;3.15;;
84381;SDS011;74572;51.834;5.820;2024-02-26T14:35:06;9.38;;;3.55;;
84381;SDS011;74572;51.834;5.820;2024-02-26T14:37:32;4.80;;;2.50;;
84381;SDS011;74572;51.834;5.820;2024-02-26T14:39:58;3.97;;;2.05;;
84381;SDS011;74572;51.834;5.820;2024-02-26T14:42:23;5.00;;;3.13;;
84381;SDS011;74572;51.834;5.820;2024-02-26T14:44:49;6.00;;;3.42;;
84381;SDS011;74572;51.834;5.820;2024-02-26T14:47:15;4.30;;;2.30;;
84381;SDS011;74572;51.834;5.820;2024-02-26T14:49:41;7.68;;;4.25;;
84381;SDS011;74572;51.834;5.820;2024-02-26T14:52:06;7.00;;;3.47;;